Time;durP1;ratioP1;P1;durP2;ratioP2;P2;SDS_P1;SDS_P2;PMS_P1;PMS_P2;Temp;Humidity;BMP_temperature;BMP_pressure;BME280_temperature;BME280_humidity;BME280_pressure;Samples;Min_cycle;Max_cycle;Signal;HPM_P1;HPM_P2
2023/07/01 00:02:01;;;;;;;4.72;4.32;;;22.60;76.00;;;;;;4805939;29;20182;-86
2023/07/01 00:04:28;;;;;;;4.75;4.35;;;22.60;76.00;;;;;;4789746;29;20190;-83
2023/07/01 00:06:55;;;;;;;4.50;4.10;;;22.60;75.90;;;;;;4789870;29;20186;-86
2023/07/01 00:09:21;;;;;;;5.13;4.72;;;22.60;75.90;;;;;;4819894;29;20152;-83
2023/07/01 00:11:48;;;;;;;4.85;4.45;;;22.60;75.80;;;;;;4805115;29;20179;-84
2023/07/01 00:14:14;;;;;;;5.03;4.45;;;22.60;75.90;;;;;;4789599;29;20646;-85
2023/07/01 00:16:39;;;;;;;4.80;4.40;;;22.70;76.00;;;;;;4804535;29;20216;-83
2023/07/01 00:19:07;;;;;;;5.15;4.70;;;22.60;75.90;;;;;;4804697;29;20570;-86
2023/07/01 00:21:36;;;;;;;4.97;4.55;;;22.70;75.80;;;;;;4821247;29;20166;-86
2023/07/01 00:24:03;;;;;;;4.90;4.47;;;22.60;75.80;;;;;;4822472;29;20199;-87
2023/07/01 00:26:29;;;;;;;5.15;4.65;;;22.70;76.00;;;;;;4823243;29;20632;-87
2023/07/01 00:28:54;;;;;;;4.90;4.50;;;22.60;75.90;;;;;;4822995;29;20178;-86
2023/07/01 00:31:20;;;;;;;5.10;4.63;;;22.60;75.80;;;;;;4808858;29;20250;-85
2023/07/01 00:33:46;;;;;;;4.95;4.55;;;22.70;75.80;;;;;;4809290;29;20179;-84
2023/07/01 00:36:12;;;;;;;5.03;4.63;;;22.70;75.80;;;;;;4809067;29;20201;-85
2023/07/01 00:38:38;;;;;;;4.57;4.18;;;22.60;75.80;;;;;;4822831;29;20225;-87
2023/07/01 00:41:08;;;;;;;4.97;4.53;;;22.70;75.60;;;;;;4808899;29;20211;-85
2023/07/01 00:43:33;;;;;;;4.80;4.40;;;22.60;75.60;;;;;;4807143;29;20202;-85
2023/07/01 00:45:59;;;;;;;4.93;4.47;;;22.60;75.60;;;;;;4808817;29;20195;-87
2023/07/01 00:48:26;;;;;;;5.00;4.50;;;22.60;75.70;;;;;;4822680;29;20159;-85
2023/07/01 00:50:52;;;;;;;4.68;4.28;;;22.60;75.60;;;;;;4822731;29;20159;-85
2023/07/01 00:53:18;;;;;;;4.85;4.38;;;22.60;75.50;;;;;;4822892;29;20169;-88
2023/07/01 00:55:44;;;;;;;4.55;4.15;;;22.60;75.60;;;;;;4807465;29;20187;-85
2023/07/01 00:58:10;;;;;;;4.70;4.30;;;22.60;75.60;;;;;;4792497;29;20239;-87
2023/07/01 01:00:36;;;;;;;4.55;4.15;;;22.60;75.60;;;;;;4822456;29;20594;-84
2023/07/01 01:03:29;;;;;;;4.70;4.30;;;22.60;75.70;;;;;;4808558;29;20242;-84
2023/07/01 01:06:07;;;;;;;4.80;4.40;;;22.60;75.50;;;;;;4808451;29;20654;-86
2023/07/01 01:08:51;;;;;;;4.78;4.38;;;22.60;75.50;;;;;;4822603;29;20163;-89
2023/07/01 01:11:17;;;;;;;4.68;4.28;;;22.60;75.50;;;;;;4822558;29;20154;-86
2023/07/01 01:13:47;;;;;;;4.78;4.30;;;22.70;75.70;;;;;;4792515;29;20677;-86
2023/07/01 01:16:12;;;;;;;4.60;4.20;;;22.60;75.40;;;;;;4821649;29;20198;-86
2023/07/01 01:18:39;;;;;;;4.93;4.53;;;22.60;75.40;;;;;;4822280;29;20707;-87
2023/07/01 01:21:05;;;;;;;5.18;4.70;;;22.60;75.40;;;;;;4821919;29;20178;-86
2023/07/01 01:23:52;;;;;;;4.68;4.28;;;22.60;75.50;;;;;;4808327;29;20498;-85
2023/07/01 01:26:19;;;;;;;4.65;4.25;;;22.60;75.40;;;;;;4808197;29;20527;-87
2023/07/01 01:28:46;;;;;;;4.70;4.30;;;22.60;75.40;;;;;;4808113;29;20615;-88
2023/07/01 01:31:12;;;;;;;4.85;4.45;;;22.60;75.40;;;;;;4818886;29;20277;-84
2023/07/01 01:33:39;;;;;;;4.88;4.38;;;22.60;75.30;;;;;;4788677;29;20176;-84
2023/07/01 01:36:13;;;;;;;4.68;4.28;;;22.60;75.40;;;;;;4818980;29;20220;-84
2023/07/01 01:38:43;;;;;;;5.00;4.60;;;22.60;75.30;;;;;;4790394;29;20174;-86
2023/07/01 01:41:19;;;;;;;4.72;4.32;;;22.60;75.20;;;;;;4818379;29;20282;-85
2023/07/01 01:44:03;;;;;;;4.68;4.28;;;22.60;75.30;;;;;;4819010;29;20176;-87
2023/07/01 01:46:29;;;;;;;4.68;4.28;;;22.60;75.20;;;;;;4788482;30;20297;-86
2023/07/01 01:48:56;;;;;;;4.75;4.35;;;22.60;75.20;;;;;;4790069;29;20304;-86
2023/07/01 01:51:23;;;;;;;4.80;4.40;;;22.60;75.20;;;;;;4818675;29;20362;-86
2023/07/01 01:53:49;;;;;;;4.95;4.55;;;22.60;75.10;;;;;;4818704;29;20159;-84
2023/07/01 01:56:15;;;;;;;5.30;4.80;;;22.60;75.10;;;;;;4818733;29;20168;-87
2023/07/01 01:58:41;;;;;;;4.68;4.28;;;22.60;75.10;;;;;;4818672;29;20160;-87
2023/07/01 02:01:07;;;;;;;4.50;4.10;;;22.70;75.20;;;;;;4788345;30;20593;-87
2023/07/01 02:03:33;;;;;;;4.68;4.28;;;22.60;75.20;;;;;;4803675;29;20187;-87
2023/07/01 02:05:59;;;;;;;4.75;4.35;;;22.60;75.10;;;;;;4818485;29;20191;-85
2023/07/01 02:08:28;;;;;;;5.35;4.85;;;22.60;75.10;;;;;;4818579;29;20164;-88
2023/07/01 02:10:54;;;;;;;4.43;4.03;;;22.60;75.20;;;;;;4818149;29;20245;-86
2023/07/01 02:13:20;;;;;;;4.90;4.50;;;22.60;75.10;;;;;;4818375;29;20167;-87
2023/07/01 02:15:46;;;;;;;4.90;4.50;;;22.60;75.00;;;;;;4803142;29;20593;-84
2023/07/01 02:18:12;;;;;;;4.70;4.30;;;22.60;75.00;;;;;;4789251;29;20167;-88
2023/07/01 02:20:38;;;;;;;4.50;4.10;;;22.60;75.00;;;;;;4803200;29;20179;-86
2023/07/01 02:23:04;;;;;;;4.53;4.13;;;22.60;75.00;;;;;;4818132;29;20167;-86
2023/07/01 02:25:30;;;;;;;4.68;4.28;;;22.60;75.00;;;;;;4818438;29;20229;-85
2023/07/01 02:27:56;;;;;;;4.43;4.03;;;22.60;75.10;;;;;;4818366;29;20163;-87
2023/07/01 02:30:22;;;;;;;4.53;4.13;;;22.60;75.00;;;;;;4790678;29;20252;-87
2023/07/01 02:32:48;;;;;;;4.53;4.13;;;22.50;75.00;;;;;;4805761;29;20178;-88
2023/07/01 02:35:14;;;;;;;4.68;4.28;;;22.60;75.00;;;;;;4807242;29;20194;-88
2023/07/01 02:37:40;;;;;;;5.03;4.53;;;22.60;75.00;;;;;;4806977;29;20170;-83
2023/07/01 02:40:06;;;;;;;4.85;4.45;;;22.60;74.90;;;;;;4807218;29;20167;-88
2023/07/01 02:42:32;;;;;;;4.93;4.50;;;22.60;74.90;;;;;;4806848;29;20196;-88
2023/07/01 02:44:58;;;;;;;4.53;4.13;;;22.60;74.80;;;;;;4790098;29;20207;-86
2023/07/01 02:47:24;;;;;;;4.55;4.15;;;22.60;74.70;;;;;;4807082;29;20163;-88
2023/07/01 02:49:50;;;;;;;5.03;4.63;;;22.60;74.90;;;;;;4806794;29;20171;-86
2023/07/01 02:52:17;;;;;;;5.10;4.57;;;22.60;74.90;;;;;;4820778;29;20162;-88
2023/07/01 02:54:43;;;;;;;4.53;4.10;;;22.60;74.80;;;;;;4806725;29;20171;-86
2023/07/01 02:57:09;;;;;;;4.55;4.15;;;22.60;74.80;;;;;;4806650;29;20162;-85
2023/07/01 02:59:36;;;;;;;4.50;4.10;;;22.60;74.80;;;;;;4820770;29;20159;-88
2023/07/01 03:02:02;;;;;;;4.68;4.28;;;22.60;74.70;;;;;;4790290;29;20182;-85
2023/07/01 03:04:28;;;;;;;5.05;4.55;;;22.60;74.70;;;;;;4820668;29;20538;-86
2023/07/01 03:06:59;;;;;;;4.65;4.22;;;22.60;74.80;;;;;;4805296;29;20674;-85
2023/07/01 03:09:25;;;;;;;4.97;4.47;;;22.60;74.70;;;;;;4804706;29;20194;-87
2023/07/01 03:11:52;;;;;;;4.50;4.10;;;22.60;74.70;;;;;;4820827;29;20262;-87
2023/07/01 03:14:18;;;;;;;4.70;4.30;;;22.50;74.60;;;;;;4805069;29;20190;-86
2023/07/01 03:16:46;;;;;;;4.75;4.35;;;22.60;74.80;;;;;;4806304;29;20538;-85
2023/07/01 03:19:12;;;;;;;4.68;4.28;;;22.60;74.70;;;;;;4820455;29;20211;-85
2023/07/01 03:21:38;;;;;;;4.20;3.90;;;22.60;75.50;;;;;;4820345;29;20211;-85
2023/07/01 03:24:04;;;;;;;4.53;4.15;;;22.60;74.50;;;;;;4820264;29;20179;-85
2023/07/01 03:26:30;;;;;;;5.22;4.72;;;22.60;74.50;;;;;;4790005;29;20202;-84
2023/07/01 03:28:56;;;;;;;4.65;4.25;;;22.60;74.50;;;;;;4804989;29;20178;-84
2023/07/01 03:31:22;;;;;;;4.90;4.40;;;22.60;74.50;;;;;;4806044;29;20226;-85
2023/07/01 03:33:48;;;;;;;4.72;4.30;;;22.60;74.50;;;;;;4804946;29;20206;-88
2023/07/01 03:36:14;;;;;;;5.00;4.50;;;22.60;74.50;;;;;;4820161;29;20179;-85
2023/07/01 03:38:40;;;;;;;4.65;4.25;;;22.60;74.60;;;;;;4804952;29;20179;-88
2023/07/01 03:41:10;;;;;;;4.68;4.28;;;22.60;74.60;;;;;;4804834;29;20172;-88
2023/07/01 03:43:36;;;;;;;4.70;4.15;;;22.60;74.50;;;;;;4819509;29;20218;-84
2023/07/01 03:46:06;;;;;;;4.80;4.30;;;22.60;74.50;;;;;;4820145;29;20226;-84
2023/07/01 03:48:32;;;;;;;4.32;3.92;;;22.60;74.50;;;;;;4819561;29;20222;-88
2023/07/01 03:50:58;;;;;;;4.70;4.30;;;22.60;74.50;;;;;;4790250;29;20207;-87
2023/07/01 03:53:23;;;;;;;4.95;4.47;;;22.60;74.50;;;;;;4806056;29;20248;-86
2023/07/01 03:55:49;;;;;;;4.50;4.10;;;22.60;74.50;;;;;;4820542;29;20167;-87
2023/07/01 03:58:24;;;;;;;4.30;3.90;;;22.60;74.50;;;;;;4823968;29;20167;-85
2023/07/01 04:00:50;;;;;;;4.57;4.18;;;22.60;74.50;;;;;;4807833;29;20277;-86
2023/07/01 04:03:23;;;;;;;4.57;4.18;;;22.60;74.50;;;;;;4809126;29;20182;-86
2023/07/01 04:05:51;;;;;;;6.13;4.40;;;22.60;74.50;;;;;;4808258;29;20246;-88
2023/07/01 04:08:18;;;;;;;4.68;4.25;;;22.60;74.50;;;;;;4810207;29;20183;-85
2023/07/01 04:10:48;;;;;;;4.20;3.90;;;22.60;74.50;;;;;;4823743;29;20171;-85
2023/07/01 04:13:13;;;;;;;4.38;3.97;;;22.60;74.40;;;;;;4823211;29;20198;-88
2023/07/01 04:15:39;;;;;;;4.40;4.00;;;22.60;74.40;;;;;;4808601;29;20171;-88
2023/07/01 04:18:05;;;;;;;4.70;4.30;;;22.50;74.40;;;;;;4808644;29;20196;-86
2023/07/01 04:20:36;;;;;;;4.65;4.25;;;22.60;74.50;;;;;;4809994;29;20171;-86
2023/07/01 04:23:02;;;;;;;4.75;4.35;;;22.50;74.40;;;;;;4823014;29;20666;-86
2023/07/01 04:25:28;;;;;;;4.60;4.20;;;22.50;74.30;;;;;;4809589;29;20275;-87
2023/07/01 04:27:54;;;;;;;4.53;4.13;;;22.60;74.30;;;;;;4809601;29;20163;-84
2023/07/01 04:30:20;;;;;;;4.47;4.07;;;22.60;74.20;;;;;;4808346;29;20714;-84
2023/07/01 04:32:46;;;;;;;4.30;3.90;;;22.60;74.30;;;;;;4823335;29;20171;-89
2023/07/01 04:35:16;;;;;;;4.50;4.10;;;22.60;74.10;;;;;;4823548;29;20171;-85
2023/07/01 04:37:42;;;;;;;4.47;4.07;;;22.60;74.00;;;;;;4792748;29;20225;-88
2023/07/01 04:40:09;;;;;;;4.55;4.15;;;22.60;74.20;;;;;;4823328;29;20219;-88
2023/07/01 04:42:35;;;;;;;4.43;4.03;;;22.60;74.20;;;;;;4808061;29;20258;-84
2023/07/01 04:45:01;;;;;;;4.65;4.22;;;22.60;74.20;;;;;;4809034;29;20199;-86
2023/07/01 04:47:32;;;;;;;4.70;4.30;;;22.60;74.20;;;;;;4808115;29;20175;-88
2023/07/01 04:49:58;;;;;;;5.00;4.50;;;22.60;74.00;;;;;;4807287;29;20299;-87
2023/07/01 04:52:24;;;;;;;4.45;4.13;;;22.60;74.10;;;;;;4808114;29;20171;-85
2023/07/01 04:54:51;;;;;;;4.63;4.22;;;22.50;74.10;;;;;;4809227;29;20254;-85
2023/07/01 04:57:21;;;;;;;4.53;4.13;;;22.60;74.00;;;;;;4807907;29;20171;-84
2023/07/01 04:59:52;;;;;;;4.63;4.22;;;22.50;74.00;;;;;;4792162;29;20191;-88
2023/07/01 05:02:18;;;;;;;4.72;4.30;;;22.60;74.00;;;;;;4807177;29;20198;-85
2023/07/01 05:04:44;;;;;;;4.72;4.30;;;22.50;74.00;;;;;;4822527;29;20155;-88
2023/07/01 05:07:10;;;;;;;5.20;4.32;;;22.60;74.10;;;;;;4807321;29;20195;-87
2023/07/01 05:09:36;;;;;;;5.47;4.45;;;22.60;74.10;;;;;;4822676;29;20190;-84
2023/07/01 05:12:06;;;;;;;4.70;4.30;;;22.50;74.10;;;;;;4807747;29;20642;-86
2023/07/01 05:14:32;;;;;;;4.32;3.92;;;22.50;74.00;;;;;;4792007;29;20273;-84
2023/07/01 05:17:02;;;;;;;5.00;4.45;;;22.50;74.10;;;;;;4822598;29;20653;-89
2023/07/01 05:19:28;;;;;;;4.70;4.30;;;22.50;74.10;;;;;;4807046;29;20193;-84
2023/07/01 05:21:54;;;;;;;4.70;4.30;;;22.50;74.10;;;;;;4792577;29;20176;-87
2023/07/01 05:24:20;;;;;;;4.50;4.10;;;22.50;74.20;;;;;;4792324;29;20556;-84
2023/07/01 05:26:51;;;;;;;4.63;4.10;;;22.50;74.10;;;;;;4822785;29;20194;-84
2023/07/01 05:29:18;;;;;;;4.75;4.35;;;22.50;74.00;;;;;;4791534;29;20277;-84
2023/07/01 05:31:44;;;;;;;4.72;4.32;;;22.50;74.10;;;;;;4829701;29;20231;-86
2023/07/01 05:34:10;;;;;;;4.50;4.10;;;22.60;74.10;;;;;;4790605;29;20169;-87
2023/07/01 05:36:40;;;;;;;4.85;4.40;;;22.50;74.00;;;;;;4804069;29;20242;-87
2023/07/01 05:39:09;;;;;;;4.75;4.35;;;22.60;74.10;;;;;;4818665;29;20195;-85
2023/07/01 05:41:35;;;;;;;4.32;3.92;;;22.50;74.00;;;;;;4818941;29;20286;-86
2023/07/01 05:44:01;;;;;;;4.95;4.10;;;22.50;74.00;;;;;;4819120;29;20270;-84
2023/07/01 05:46:31;;;;;;;4.55;4.15;;;22.50;74.00;;;;;;4819064;29;20720;-84
2023/07/01 05:48:57;;;;;;;4.20;3.80;;;22.50;74.00;;;;;;4818592;29;20199;-84
2023/07/01 05:51:23;;;;;;;4.45;4.05;;;22.60;73.90;;;;;;4819265;29;20235;-87
2023/07/01 05:53:49;;;;;;;4.53;4.13;;;22.60;73.80;;;;;;4819199;29;20171;-84
2023/07/01 05:56:16;;;;;;;5.05;4.60;;;22.50;73.90;;;;;;4790434;30;20179;-86
2023/07/01 05:58:46;;;;;;;4.97;4.57;;;22.50;73.80;;;;;;4819014;29;20636;-87
2023/07/01 06:01:12;;;;;;;4.57;4.18;;;22.50;73.80;;;;;;4818265;29;20191;-89
2023/07/01 06:03:38;;;;;;;4.57;4.15;;;22.50;73.80;;;;;;4819120;29;20174;-86
2023/07/01 06:06:07;;;;;;;5.03;4.63;;;22.60;73.90;;;;;;4789979;30;20191;-85
2023/07/01 06:08:33;;;;;;;5.15;4.18;;;22.50;73.70;;;;;;4818313;29;20609;-88
2023/07/01 06:10:59;;;;;;;4.60;4.20;;;22.50;73.80;;;;;;4803675;29;20282;-88
2023/07/01 06:13:25;;;;;;;4.40;4.00;;;22.50;73.80;;;;;;4818950;29;20183;-88
2023/07/01 06:15:51;;;;;;;4.30;3.90;;;22.50;73.70;;;;;;4789017;30;20179;-86
2023/07/01 06:18:17;;;;;;;4.38;3.97;;;22.50;73.70;;;;;;4818190;29;20202;-86
2023/07/01 06:20:47;;;;;;;4.22;3.92;;;22.50;73.70;;;;;;4818350;29;20213;-85
2023/07/01 06:23:15;;;;;;;4.63;4.22;;;22.50;73.70;;;;;;4803044;29;20215;-88
2023/07/01 06:25:41;;;;;;;4.35;3.95;;;22.50;73.80;;;;;;4818665;29;20191;-88
2023/07/01 06:28:07;;;;;;;4.35;3.95;;;22.50;73.60;;;;;;4818611;29;20179;-88
2023/07/01 06:30:33;;;;;;;4.90;4.32;;;22.50;73.60;;;;;;4805907;29;20375;-87
2023/07/01 06:32:59;;;;;;;4.60;4.00;;;22.50;73.70;;;;;;4807435;29;20618;-87
2023/07/01 06:35:25;;;;;;;4.65;4.25;;;22.60;73.60;;;;;;4821178;29;20174;-88
2023/07/01 06:37:50;;;;;;;4.63;4.22;;;22.50;73.60;;;;;;4805859;29;20226;-87
2023/07/01 06:40:16;;;;;;;3.97;3.63;;;22.60;73.20;;;;;;4806286;29;20665;-85
2023/07/01 06:42:43;;;;;;;4.13;3.72;;;22.60;72.10;;;;;;4791260;29;20178;-86
2023/07/01 06:45:09;;;;;;;4.05;3.65;;;22.60;71.80;;;;;;4821082;29;20190;-87
2023/07/01 06:47:35;;;;;;;3.88;3.40;;;22.50;71.20;;;;;;4821252;29;20198;-87
2023/07/01 06:50:01;;;;;;;3.72;3.42;;;22.40;71.10;;;;;;4805665;29;20270;-89
2023/07/01 06:52:27;;;;;;;3.58;3.28;;;22.40;71.00;;;;;;4806886;29;20532;-85
2023/07/01 06:54:53;;;;;;;3.53;3.22;;;22.30;70.80;;;;;;4820919;29;20647;-86
2023/07/01 06:57:19;;;;;;;3.50;3.08;;;22.30;70.70;;;;;;4806890;29;20159;-89
2023/07/01 06:59:45;;;;;;;3.80;3.47;;;22.30;70.70;;;;;;4790486;29;20170;-85
2023/07/01 07:02:11;;;;;;;3.60;3.30;;;22.30;70.70;;;;;;4806938;29;20163;-87
2023/07/01 07:04:37;;;;;;;3.67;3.38;;;22.20;70.50;;;;;;4806800;29;20167;-85
2023/07/01 07:07:07;;;;;;;3.58;3.28;;;22.20;70.50;;;;;;4820636;29;20163;-85
2023/07/01 07:09:33;;;;;;;3.80;3.40;;;22.20;70.30;;;;;;4804893;29;20186;-86
2023/07/01 07:11:59;;;;;;;3.47;3.17;;;22.20;70.30;;;;;;4806777;29;20642;-87
2023/07/01 07:14:28;;;;;;;3.60;3.30;;;22.20;70.30;;;;;;4820615;29;20163;-88
2023/07/01 07:16:54;;;;;;;3.50;3.20;;;22.30;70.10;;;;;;4820050;29;20195;-87
2023/07/01 07:19:24;;;;;;;3.42;3.13;;;22.40;69.90;;;;;;4820515;29;20170;-87
2023/07/01 07:21:50;;;;;;;3.50;3.20;;;22.30;69.80;;;;;;4819942;29;20190;-86
2023/07/01 07:24:16;;;;;;;3.30;3.00;;;22.30;69.60;;;;;;4805475;29;20548;-87
2023/07/01 07:26:42;;;;;;;3.50;3.20;;;22.30;69.60;;;;;;4806316;29;20198;-87
2023/07/01 07:29:08;;;;;;;3.33;3.03;;;22.30;69.30;;;;;;4820393;29;20712;-85
2023/07/01 07:31:34;;;;;;;3.70;3.40;;;22.30;69.20;;;;;;4804791;29;20222;-87
2023/07/01 07:34:01;;;;;;;3.40;3.10;;;22.40;69.30;;;;;;4820283;29;20646;-87
2023/07/01 07:36:26;;;;;;;3.33;2.88;;;22.30;69.20;;;;;;4790224;29;20239;-88
2023/07/01 07:38:52;;;;;;;3.35;3.00;;;22.40;68.70;;;;;;4806137;29;20171;-86
2023/07/01 07:41:18;;;;;;;3.40;3.10;;;22.40;69.00;;;;;;4806563;29;20574;-86
2023/07/01 07:43:44;;;;;;;3.30;3.00;;;22.50;68.60;;;;;;4789988;29;20175;-86
2023/07/01 07:46:10;;;;;;;2.90;2.70;;;22.50;68.60;;;;;;4820446;29;20225;-85
2023/07/01 07:48:36;;;;;;;3.47;3.17;;;22.50;68.10;;;;;;4805166;29;20174;-85
2023/07/01 07:51:02;;;;;;;3.20;2.90;;;22.60;68.10;;;;;;4789951;29;20179;-85
2023/07/01 07:53:32;;;;;;;3.20;2.90;;;22.50;67.80;;;;;;4820223;29;20167;-85
2023/07/01 07:55:58;;;;;;;3.35;3.05;;;22.60;67.70;;;;;;4804235;29;20603;-85
2023/07/01 07:58:24;;;;;;;2.95;2.72;;;22.60;67.50;;;;;;4805266;29;20692;-86
2023/07/01 08:00:50;;;;;;;3.33;3.03;;;22.60;67.70;;;;;;4819952;29;20532;-85
2023/07/01 08:03:16;;;;;;;3.72;3.42;;;22.60;68.00;;;;;;4804626;29;20286;-84
2023/07/01 08:05:41;;;;;;;3.20;2.90;;;22.70;67.70;;;;;;4804892;29;20209;-85
2023/07/01 08:08:07;;;;;;;4.10;3.40;;;22.70;67.20;;;;;;4820189;29;20219;-86
2023/07/01 08:10:33;;;;;;;3.40;3.10;;;22.70;67.20;;;;;;4805887;29;20202;-88
2023/07/01 08:12:59;;;;;;;3.35;3.00;;;22.70;67.20;;;;;;4820015;29;20200;-86
2023/07/01 08:15:25;;;;;;;3.22;2.92;;;22.70;67.00;;;;;;4819683;29;20251;-86
2023/07/01 08:17:51;;;;;;;3.30;3.00;;;22.70;66.80;;;;;;4819824;29;20171;-86
2023/07/01 08:20:17;;;;;;;3.47;3.10;;;22.80;66.80;;;;;;4804876;29;20619;-87
2023/07/01 08:22:43;;;;;;;3.17;2.88;;;22.80;66.50;;;;;;4819800;29;20631;-87
2023/07/01 08:25:13;;;;;;;2.95;2.65;;;22.70;66.70;;;;;;4819821;29;20205;-85
2023/07/01 08:27:39;;;;;;;3.20;2.90;;;22.80;66.30;;;;;;4819159;29;20187;-87
2023/07/01 08:30:05;;;;;;;3.20;2.90;;;22.80;66.30;;;;;;4804531;29;20175;-88
2023/07/01 08:32:33;;;;;;;3.50;3.20;;;22.80;66.00;;;;;;4805666;29;20710;-87
2023/07/01 08:34:59;;;;;;;3.13;2.83;;;22.80;66.30;;;;;;4819548;29;20166;-87
2023/07/01 08:37:26;;;;;;;3.47;3.17;;;22.80;66.10;;;;;;4805875;29;20270;-87
2023/07/01 08:39:51;;;;;;;3.00;2.70;;;22.80;66.40;;;;;;4804778;29;20183;-86
2023/07/01 08:42:22;;;;;;;3.35;3.05;;;22.80;65.90;;;;;;4790676;29;20549;-87
2023/07/01 08:44:48;;;;;;;3.40;3.10;;;22.90;65.80;;;;;;4823122;29;20219;-87
2023/07/01 08:47:14;;;;;;;3.40;3.10;;;22.90;65.40;;;;;;4823229;29;20579;-85
2023/07/01 08:49:40;;;;;;;3.53;3.10;;;22.90;65.20;;;;;;4822732;29;20171;-87
2023/07/01 08:52:06;;;;;;;3.50;3.20;;;22.80;65.80;;;;;;4822911;29;20170;-87
2023/07/01 08:54:34;;;;;;;3.50;3.20;;;22.90;66.80;;;;;;4809126;29;20164;-86
2023/07/01 08:57:00;;;;;;;3.45;3.15;;;22.80;65.80;;;;;;4822713;29;20211;-86
2023/07/01 08:59:26;;;;;;;3.30;2.90;;;22.90;65.30;;;;;;4808773;29;20171;-88
2023/07/01 09:01:52;;;;;;;3.25;2.95;;;22.90;65.00;;;;;;4807291;29;20195;-87
2023/07/01 09:04:18;;;;;;;3.70;3.30;;;22.90;64.80;;;;;;4822525;29;20531;-86
2023/07/01 09:06:44;;;;;;;3.00;2.70;;;23.00;64.90;;;;;;4807731;29;20666;-87
2023/07/01 09:09:10;;;;;;;3.38;3.08;;;23.00;64.70;;;;;;4808612;29;20180;-85
2023/07/01 09:11:36;;;;;;;3.50;3.13;;;23.00;64.70;;;;;;4822681;29;20171;-87
2023/07/01 09:14:03;;;;;;;3.35;3.05;;;23.00;64.20;;;;;;4822430;29;20244;-85
2023/07/01 09:16:32;;;;;;;3.55;3.25;;;22.90;64.10;;;;;;4807615;29;20171;-87
2023/07/01 09:19:10;;;;;;;3.20;2.90;;;23.00;64.20;;;;;;4807092;29;20627;-84
2023/07/01 09:21:37;;;;;;;3.35;3.05;;;23.00;64.00;;;;;;4792042;29;20199;-87
2023/07/01 09:24:06;;;;;;;3.15;2.90;;;23.00;64.30;;;;;;4807089;29;20171;-84
2023/07/01 09:26:32;;;;;;;2.75;2.55;;;23.00;64.00;;;;;;4822011;29;20278;-86
2023/07/01 09:28:59;;;;;;;3.50;3.20;;;23.00;63.80;;;;;;4822095;29;20246;-85
2023/07/01 09:31:26;;;;;;;3.03;2.72;;;23.00;63.60;;;;;;4803689;29;20231;-88
2023/07/01 09:34:06;;;;;;;3.60;3.30;;;23.00;63.30;;;;;;4803679;29;20183;-84
2023/07/01 09:36:32;;;;;;;3.05;2.75;;;23.10;63.40;;;;;;4790091;29;20254;-85
2023/07/01 09:39:04;;;;;;;3.40;3.10;;;23.00;63.40;;;;;;4819002;29;20247;-84
2023/07/01 09:41:30;;;;;;;3.30;3.00;;;23.00;63.70;;;;;;4817824;29;20194;-85
2023/07/01 09:43:58;;;;;;;3.28;2.97;;;23.00;63.30;;;;;;4789957;29;20175;-84
2023/07/01 09:46:24;;;;;;;2.78;2.58;;;23.00;63.30;;;;;;4788786;30;20217;-85
2023/07/01 09:48:52;;;;;;;3.70;3.40;;;23.00;63.30;;;;;;4819993;29;20168;-84
2023/07/01 09:51:18;;;;;;;3.65;2.92;;;23.00;63.10;;;;;;4789833;29;20156;-84
2023/07/01 09:53:43;;;;;;;3.20;2.90;;;23.10;62.90;;;;;;4817723;29;20217;-85
2023/07/01 09:56:09;;;;;;;3.30;3.00;;;23.00;62.90;;;;;;4789723;29;20251;-85
2023/07/01 09:58:35;;;;;;;2.92;2.72;;;23.10;62.90;;;;;;4788500;30;20232;-85
2023/07/01 10:01:01;;;;;;;3.53;3.22;;;23.00;62.90;;;;;;4818789;29;20214;-84
2023/07/01 10:03:27;;;;;;;3.00;2.80;;;23.00;63.20;;;;;;4803488;29;20178;-85
2023/07/01 10:05:53;;;;;;;3.42;3.13;;;22.90;62.70;;;;;;4803401;29;20214;-86
2023/07/01 10:08:19;;;;;;;2.88;2.67;;;23.00;62.80;;;;;;4788910;30;20172;-84
2023/07/01 10:10:53;;;;;;;3.10;2.80;;;22.90;62.60;;;;;;4818586;29;20506;-86
2023/07/01 10:13:19;;;;;;;3.08;2.88;;;23.00;62.40;;;;;;4818688;29;20177;-84
2023/07/01 10:15:45;;;;;;;3.13;2.80;;;23.00;63.20;;;;;;4789609;29;20171;-83
2023/07/01 10:18:30;;;;;;;3.10;2.80;;;23.00;62.40;;;;;;4818447;29;20191;-84
2023/07/01 10:21:09;;;;;;;3.55;3.20;;;23.00;61.90;;;;;;4802873;29;20175;-84
2023/07/01 10:23:50;;;;;;;3.25;2.95;;;23.10;61.80;;;;;;4789512;29;20215;-84
2023/07/01 10:26:35;;;;;;;3.20;2.90;;;23.10;61.70;;;;;;4789422;29;20738;-87
2023/07/01 10:29:40;;;;;;;3.30;3.00;;;23.10;61.40;;;;;;4818266;29;20216;-86
2023/07/01 10:32:28;;;;;;;3.10;2.80;;;23.10;61.50;;;;;;4813121;29;20631;-85
2023/07/01 10:35:13;;;;;;;3.13;2.83;;;23.10;61.30;;;;;;4812679;29;20190;-86
2023/07/01 10:37:39;;;;;;;3.00;2.72;;;23.10;61.10;;;;;;4817747;29;20156;-83
2023/07/01 10:40:40;;;;;;;3.45;3.13;;;23.10;61.00;;;;;;4803182;29;20167;-87
2023/07/01 10:43:22;;;;;;;3.00;2.80;;;23.10;61.10;;;;;;4787946;30;20171;-84
2023/07/01 10:46:23;;;;;;;2.88;2.67;;;23.10;60.80;;;;;;4817587;29;20191;-86
2023/07/01 10:49:06;;;;;;;3.10;2.80;;;23.10;60.60;;;;;;4813276;29;20227;-84
2023/07/01 10:52:04;;;;;;;3.55;3.08;;;23.20;60.50;;;;;;4787940;30;20184;-85
2023/07/01 10:54:32;;;;;;;3.20;2.90;;;23.20;60.60;;;;;;4802530;29;20156;-86
2023/07/01 10:57:12;;;;;;;3.30;3.00;;;23.10;60.60;;;;;;4817647;29;20164;-83
2023/07/01 10:59:38;;;;;;;3.20;2.90;;;23.10;60.30;;;;;;4802315;29;20194;-85
2023/07/01 11:02:04;;;;;;;3.08;2.78;;;23.20;60.50;;;;;;4817726;29;20632;-84
2023/07/01 11:05:03;;;;;;;2.95;2.72;;;23.10;60.40;;;;;;4817379;29;20175;-84
2023/07/01 11:07:29;;;;;;;3.30;3.00;;;23.10;60.50;;;;;;4812119;29;20216;-85
2023/07/01 11:09:56;;;;;;;3.20;2.90;;;23.10;60.30;;;;;;4802812;29;20651;-85
2023/07/01 11:12:23;;;;;;;3.20;2.90;;;23.10;60.30;;;;;;4788502;29;20244;-83
2023/07/01 11:14:51;;;;;;;2.70;2.50;;;23.10;60.00;;;;;;4802242;29;20184;-84
2023/07/01 11:17:17;;;;;;;3.30;2.75;;;23.20;59.80;;;;;;4817535;29;20164;-85
2023/07/01 11:19:44;;;;;;;2.90;2.70;;;23.20;59.90;;;;;;4802593;29;20183;-83
2023/07/01 11:22:12;;;;;;;2.85;2.65;;;23.20;59.60;;;;;;4787265;30;20175;-86
2023/07/01 11:24:38;;;;;;;3.00;2.70;;;23.20;59.50;;;;;;4817343;29;20589;-86
2023/07/01 11:27:07;;;;;;;3.20;2.90;;;23.30;59.40;;;;;;4802124;29;20347;-86
2023/07/01 11:29:34;;;;;;;2.83;2.63;;;23.20;59.50;;;;;;4802104;29;20358;-85
2023/07/01 11:32:05;;;;;;;2.80;2.60;;;23.20;59.30;;;;;;4804848;29;20230;-83
2023/07/01 11:34:32;;;;;;;2.83;2.63;;;23.30;59.30;;;;;;4806246;29;20197;-84
2023/07/01 11:36:58;;;;;;;2.85;2.65;;;23.20;59.40;;;;;;4806274;29;20159;-85
2023/07/01 11:39:25;;;;;;;3.15;2.85;;;23.20;59.40;;;;;;4820221;29;20652;-86
2023/07/01 11:41:54;;;;;;;3.10;2.80;;;23.20;59.10;;;;;;4820490;29;20261;-83
2023/07/01 11:44:25;;;;;;;2.90;2.70;;;23.20;59.00;;;;;;4806173;29;20170;-85
2023/07/01 11:46:52;;;;;;;3.10;2.80;;;23.20;58.90;;;;;;4806012;29;20202;-86
2023/07/01 11:49:29;;;;;;;2.60;2.40;;;23.20;58.70;;;;;;4806151;29;20620;-85
2023/07/01 11:51:58;;;;;;;3.13;2.83;;;23.20;58.50;;;;;;4820211;29;20170;-84
2023/07/01 11:54:40;;;;;;;2.90;2.70;;;23.20;58.50;;;;;;4806088;29;20193;-85
2023/07/01 11:57:08;;;;;;;3.03;2.72;;;23.20;58.50;;;;;;4820101;29;20538;-85
2023/07/01 11:59:35;;;;;;;3.10;2.80;;;23.20;58.50;;;;;;4820043;29;20612;-85
2023/07/01 12:02:01;;;;;;;3.90;3.15;;;23.20;58.30;;;;;;4804716;29;20198;-87
2023/07/01 12:04:28;;;;;;;3.15;2.85;;;23.20;58.20;;;;;;4804953;29;20183;-85
2023/07/01 12:07:11;;;;;;;3.00;2.70;;;23.20;58.00;;;;;;4819940;29;20352;-86
2023/07/01 12:09:38;;;;;;;3.28;2.97;;;23.30;58.20;;;;;;4804743;29;20186;-86
2023/07/01 12:12:04;;;;;;;3.10;2.80;;;23.30;58.10;;;;;;4805920;29;20159;-86
2023/07/01 12:14:30;;;;;;;2.88;2.58;;;23.20;58.60;;;;;;4806044;29;20159;-84
2023/07/01 12:16:56;;;;;;;3.10;2.80;;;23.20;57.90;;;;;;4805249;29;20639;-84
2023/07/01 12:19:23;;;;;;;3.25;2.88;;;23.20;58.60;;;;;;4823277;29;20167;-84
2023/07/01 12:21:50;;;;;;;2.92;2.65;;;23.30;57.80;;;;;;4809553;29;20247;-84
2023/07/01 12:24:21;;;;;;;3.17;2.88;;;23.30;57.60;;;;;;4823479;29;20159;-86
2023/07/01 12:26:48;;;;;;;3.05;2.75;;;23.20;57.70;;;;;;4823095;29;20198;-85
2023/07/01 12:29:14;;;;;;;3.05;2.78;;;23.20;57.40;;;;;;4808328;29;20178;-86
2023/07/01 12:31:40;;;;;;;3.20;2.90;;;23.30;57.30;;;;;;4809004;29;20226;-85
2023/07/01 12:34:06;;;;;;;3.40;3.08;;;23.30;58.00;;;;;;4823009;29;20183;-86
2023/07/01 12:36:32;;;;;;;3.30;2.90;;;23.30;57.20;;;;;;4792804;29;20179;-84
2023/07/01 12:38:58;;;;;;;3.17;2.88;;;23.30;57.10;;;;;;4822912;29;20162;-85
2023/07/01 12:41:26;;;;;;;3.20;2.90;;;23.30;57.00;;;;;;4808338;29;20194;-83
2023/07/01 12:43:52;;;;;;;3.30;3.00;;;23.30;56.70;;;;;;4793198;29;20182;-82
2023/07/01 12:46:18;;;;;;;3.72;3.35;;;23.30;57.00;;;;;;4822906;29;20186;-86
2023/07/01 12:48:44;;;;;;;3.13;2.83;;;23.30;56.90;;;;;;4823048;29;20169;-84
2023/07/01 12:51:10;;;;;;;3.17;2.88;;;23.20;56.70;;;;;;4807595;29;20182;-84
2023/07/01 12:53:36;;;;;;;3.42;3.05;;;23.30;56.70;;;;;;4807866;29;20187;-84